sensor_id;sensor_type;location;lat;lon;timestamp;P1;durP1;ratioP1;P2;durP2;ratioP2
6513;SDS011;3290;47.716;9.070;2023-06-04T00:00:41;6.03;;;4.83;;
6513;SDS011;3290;47.716;9.070;2023-06-04T00:03:07;9.30;;;5.33;;
6513;SDS011;3290;47.716;9.070;2023-06-04T00:05:32;9.30;;;5.60;;
6513;SDS011;3290;47.716;9.070;2023-06-04T00:07:57;9.33;;;4.73;;
6513;SDS011;3290;47.716;9.070;2023-06-04T00:10:23;5.50;;;4.70;;
6513;SDS011;3290;47.716;9.070;2023-06-04T00:12:48;9.47;;;5.73;;
6513;SDS011;3290;47.716;9.070;2023-06-04T00:15:14;11.43;;;5.07;;
6513;SDS011;3290;47.716;9.070;2023-06-04T00:17:41;11.80;;;5.30;;
6513;SDS011;3290;47.716;9.070;2023-06-04T00:20:07;9.73;;;5.30;;
6513;SDS011;3290;47.716;9.070;2023-06-04T00:22:33;8.53;;;5.40;;
6513;SDS011;3290;47.716;9.070;2023-06-04T00:24:58;6.93;;;5.27;;
6513;SDS011;3290;47.716;9.070;2023-06-04T00:27:23;6.97;;;5.30;;
6513;SDS011;3290;47.716;9.070;2023-06-04T00:29:49;10.77;;;5.77;;
6513;SDS011;3290;47.716;9.070;2023-06-04T00:32:14;11.43;;;5.73;;
6513;SDS011;3290;47.716;9.070;2023-06-04T00:34:40;10.37;;;5.63;;
6513;SDS011;3290;47.716;9.070;2023-06-04T00:37:05;8.50;;;5.10;;
6513;SDS011;3290;47.716;9.070;2023-06-04T00:39:30;8.43;;;5.57;;
6513;SDS011;3290;47.716;9.070;2023-06-04T00:41:57;7.80;;;5.07;;
6513;SDS011;3290;47.716;9.070;2023-06-04T00:44:22;7.60;;;4.90;;
6513;SDS011;3290;47.716;9.070;2023-06-04T00:46:50;7.80;;;5.20;;
6513;SDS011;3290;47.716;9.070;2023-06-04T00:49:16;8.60;;;5.87;;
6513;SDS011;3290;47.716;9.070;2023-06-04T00:51:41;11.53;;;5.53;;
6513;SDS011;3290;47.716;9.070;2023-06-04T00:54:07;6.83;;;4.87;;
6513;SDS011;3290;47.716;9.070;2023-06-04T00:56:36;8.03;;;5.60;;
6513;SDS011;3290;47.716;9.070;2023-06-04T00:59:04;10.07;;;5.47;;
6513;SDS011;3290;47.716;9.070;2023-06-04T01:01:35;9.83;;;5.40;;
6513;SDS011;3290;47.716;9.070;2023-06-04T01:04:18;10.33;;;5.50;;
6513;SDS011;3290;47.716;9.070;2023-06-04T01:06:52;7.97;;;4.70;;
6513;SDS011;3290;47.716;9.070;2023-06-04T01:09:21;7.40;;;4.80;;
6513;SDS011;3290;47.716;9.070;2023-06-04T01:11:47;6.33;;;4.30;;
6513;SDS011;3290;47.716;9.070;2023-06-04T01:14:12;7.13;;;5.67;;
6513;SDS011;3290;47.716;9.070;2023-06-04T01:20:01;8.87;;;4.90;;
6513;SDS011;3290;47.716;9.070;2023-06-04T01:22:17;6.67;;;5.50;;
6513;SDS011;3290;47.716;9.070;2023-06-04T01:25:04;11.00;;;6.30;;
6513;SDS011;3290;47.716;9.070;2023-06-04T01:27:34;7.53;;;5.43;;
6513;SDS011;3290;47.716;9.070;2023-06-04T01:30:00;6.90;;;5.17;;
6513;SDS011;3290;47.716;9.070;2023-06-04T01:32:28;10.07;;;5.70;;
6513;SDS011;3290;47.716;9.070;2023-06-04T01:34:54;7.73;;;5.70;;
6513;SDS011;3290;47.716;9.070;2023-06-04T01:37:20;10.70;;;6.00;;
6513;SDS011;3290;47.716;9.070;2023-06-04T01:39:45;13.30;;;5.60;;
6513;SDS011;3290;47.716;9.070;2023-06-04T01:42:11;10.67;;;6.50;;
6513;SDS011;3290;47.716;9.070;2023-06-04T01:44:36;10.83;;;5.67;;
6513;SDS011;3290;47.716;9.070;2023-06-04T01:47:02;9.70;;;6.20;;
6513;SDS011;3290;47.716;9.070;2023-06-04T01:49:27;7.50;;;4.87;;
6513;SDS011;3290;47.716;9.070;2023-06-04T01:51:52;6.90;;;5.30;;
6513;SDS011;3290;47.716;9.070;2023-06-04T01:54:18;11.03;;;6.10;;
6513;SDS011;3290;47.716;9.070;2023-06-04T01:56:43;7.87;;;5.90;;
6513;SDS011;3290;47.716;9.070;2023-06-04T01:59:08;7.70;;;5.73;;
6513;SDS011;3290;47.716;9.070;2023-06-04T02:01:36;6.57;;;5.10;;
6513;SDS011;3290;47.716;9.070;2023-06-04T02:04:02;8.53;;;5.40;;
6513;SDS011;3290;47.716;9.070;2023-06-04T02:06:28;11.90;;;5.50;;
6513;SDS011;3290;47.716;9.070;2023-06-04T02:08:54;8.93;;;5.10;;
6513;SDS011;3290;47.716;9.070;2023-06-04T02:11:20;10.80;;;6.10;;
6513;SDS011;3290;47.716;9.070;2023-06-04T02:13:45;11.83;;;6.00;;
6513;SDS011;3290;47.716;9.070;2023-06-04T02:16:11;8.43;;;5.30;;
6513;SDS011;3290;47.716;9.070;2023-06-04T02:18:36;8.70;;;5.60;;
6513;SDS011;3290;47.716;9.070;2023-06-04T02:21:02;7.47;;;5.57;;
6513;SDS011;3290;47.716;9.070;2023-06-04T02:23:27;9.23;;;5.83;;
6513;SDS011;3290;47.716;9.070;2023-06-04T02:25:53;7.87;;;5.30;;
6513;SDS011;3290;47.716;9.070;2023-06-04T02:28:18;10.03;;;5.80;;
6513;SDS011;3290;47.716;9.070;2023-06-04T02:30:44;9.77;;;5.67;;
6513;SDS011;3290;47.716;9.070;2023-06-04T02:33:10;9.20;;;5.93;;
6513;SDS011;3290;47.716;9.070;2023-06-04T02:35:36;15.07;;;6.17;;
6513;SDS011;3290;47.716;9.070;2023-06-04T02:38:02;9.73;;;6.20;;
6513;SDS011;3290;47.716;9.070;2023-06-04T02:40:27;8.63;;;5.17;;
6513;SDS011;3290;47.716;9.070;2023-06-04T02:42:53;6.63;;;5.67;;
6513;SDS011;3290;47.716;9.070;2023-06-04T02:45:20;8.40;;;5.10;;
6513;SDS011;3290;47.716;9.070;2023-06-04T02:47:45;9.07;;;5.87;;
6513;SDS011;3290;47.716;9.070;2023-06-04T02:50:12;8.63;;;5.90;;
6513;SDS011;3290;47.716;9.070;2023-06-04T02:52:38;6.83;;;5.33;;
6513;SDS011;3290;47.716;9.070;2023-06-04T02:55:05;9.03;;;6.00;;
6513;SDS011;3290;47.716;9.070;2023-06-04T02:57:32;9.43;;;5.70;;
6513;SDS011;3290;47.716;9.070;2023-06-04T02:59:58;9.77;;;5.70;;
6513;SDS011;3290;47.716;9.070;2023-06-04T03:02:24;8.40;;;5.93;;
6513;SDS011;3290;47.716;9.070;2023-06-04T03:04:49;11.00;;;6.40;;
6513;SDS011;3290;47.716;9.070;2023-06-04T03:07:16;8.43;;;5.90;;
6513;SDS011;3290;47.716;9.070;2023-06-04T03:09:45;7.80;;;5.90;;
6513;SDS011;3290;47.716;9.070;2023-06-04T03:12:16;14.40;;;6.17;;
6513;SDS011;3290;47.716;9.070;2023-06-04T03:14:42;9.50;;;6.40;;
6513;SDS011;3290;47.716;9.070;2023-06-04T03:17:08;9.47;;;6.33;;
6513;SDS011;3290;47.716;9.070;2023-06-04T03:19:35;8.30;;;5.63;;
6513;SDS011;3290;47.716;9.070;2023-06-04T03:22:05;10.23;;;6.23;;
6513;SDS011;3290;47.716;9.070;2023-06-04T03:24:35;12.70;;;6.57;;
6513;SDS011;3290;47.716;9.070;2023-06-04T03:27:03;12.87;;;7.00;;
6513;SDS011;3290;47.716;9.070;2023-06-04T03:29:29;7.10;;;5.90;;
6513;SDS011;3290;47.716;9.070;2023-06-04T03:31:56;9.63;;;6.57;;
6513;SDS011;3290;47.716;9.070;2023-06-04T03:34:21;7.43;;;5.70;;
6513;SDS011;3290;47.716;9.070;2023-06-04T03:36:50;12.03;;;6.87;;
6513;SDS011;3290;47.716;9.070;2023-06-04T03:39:16;10.60;;;5.87;;
6513;SDS011;3290;47.716;9.070;2023-06-04T03:41:41;13.60;;;6.67;;
6513;SDS011;3290;47.716;9.070;2023-06-04T03:44:07;6.57;;;5.70;;
6513;SDS011;3290;47.716;9.070;2023-06-04T03:46:33;9.37;;;6.77;;
6513;SDS011;3290;47.716;9.070;2023-06-04T03:48:58;12.07;;;6.90;;
6513;SDS011;3290;47.716;9.070;2023-06-04T03:51:24;13.50;;;6.53;;
6513;SDS011;3290;47.716;9.070;2023-06-04T03:53:50;13.87;;;7.00;;
6513;SDS011;3290;47.716;9.070;2023-06-04T03:56:15;10.40;;;6.73;;
6513;SDS011;3290;47.716;9.070;2023-06-04T03:58:41;11.40;;;7.27;;
6513;SDS011;3290;47.716;9.070;2023-06-04T04:01:06;12.23;;;6.57;;
6513;SDS011;3290;47.716;9.070;2023-06-04T04:03:33;9.80;;;7.20;;
6513;SDS011;3290;47.716;9.070;2023-06-04T04:05:59;7.13;;;6.27;;
6513;SDS011;3290;47.716;9.070;2023-06-04T04:08:25;9.93;;;6.90;;
6513;SDS011;3290;47.716;9.070;2023-06-04T04:10:55;9.43;;;6.10;;
6513;SDS011;3290;47.716;9.070;2023-06-04T04:13:20;8.10;;;6.50;;
6513;SDS011;3290;47.716;9.070;2023-06-04T04:15:45;8.70;;;6.20;;
6513;SDS011;3290;47.716;9.070;2023-06-04T04:18:11;12.33;;;7.17;;
6513;SDS011;3290;47.716;9.070;2023-06-04T04:20:36;9.37;;;6.57;;
6513;SDS011;3290;47.716;9.070;2023-06-04T04:23:01;8.67;;;5.80;;
6513;SDS011;3290;47.716;9.070;2023-06-04T04:25:27;10.50;;;7.20;;
6513;SDS011;3290;47.716;9.070;2023-06-04T04:27:52;7.87;;;6.00;;
6513;SDS011;3290;47.716;9.070;2023-06-04T04:30:21;12.13;;;7.20;;
6513;SDS011;3290;47.716;9.070;2023-06-04T04:32:47;9.80;;;7.17;;
6513;SDS011;3290;47.716;9.070;2023-06-04T04:35:16;11.63;;;6.30;;
6513;SDS011;3290;47.716;9.070;2023-06-04T04:37:43;11.27;;;5.90;;
6513;SDS011;3290;47.716;9.070;2023-06-04T04:40:11;12.50;;;6.80;;
6513;SDS011;3290;47.716;9.070;2023-06-04T04:42:38;9.97;;;6.50;;
6513;SDS011;3290;47.716;9.070;2023-06-04T04:45:03;11.63;;;7.33;;
6513;SDS011;3290;47.716;9.070;2023-06-04T04:47:29;11.00;;;6.50;;
6513;SDS011;3290;47.716;9.070;2023-06-04T04:49:55;10.40;;;6.50;;
6513;SDS011;3290;47.716;9.070;2023-06-04T04:52:20;12.20;;;6.00;;
6513;SDS011;3290;47.716;9.070;2023-06-04T04:54:45;8.77;;;6.20;;
6513;SDS011;3290;47.716;9.070;2023-06-04T04:57:11;12.53;;;7.37;;
6513;SDS011;3290;47.716;9.070;2023-06-04T04:59:36;7.53;;;6.47;;
6513;SDS011;3290;47.716;9.070;2023-06-04T05:02:01;7.70;;;6.37;;
6513;SDS011;3290;47.716;9.070;2023-06-04T05:04:27;8.93;;;5.70;;
6513;SDS011;3290;47.716;9.070;2023-06-04T05:06:52;9.73;;;6.70;;
6513;SDS011;3290;47.716;9.070;2023-06-04T05:09:18;9.70;;;6.10;;
6513;SDS011;3290;47.716;9.070;2023-06-04T05:11:43;14.70;;;6.20;;
6513;SDS011;3290;47.716;9.070;2023-06-04T05:14:09;10.30;;;6.30;;
6513;SDS011;3290;47.716;9.070;2023-06-04T05:16:35;12.00;;;6.00;;
6513;SDS011;3290;47.716;9.070;2023-06-04T05:19:03;10.80;;;6.30;;
6513;SDS011;3290;47.716;9.070;2023-06-04T05:21:28;6.50;;;5.20;;
6513;SDS011;3290;47.716;9.070;2023-06-04T05:23:54;8.17;;;5.80;;
6513;SDS011;3290;47.716;9.070;2023-06-04T05:26:20;8.47;;;5.73;;
6513;SDS011;3290;47.716;9.070;2023-06-04T05:28:50;13.67;;;6.00;;
6513;SDS011;3290;47.716;9.070;2023-06-04T05:31:16;16.87;;;4.97;;
6513;SDS011;3290;47.716;9.070;2023-06-04T05:33:43;7.30;;;5.50;;
6513;SDS011;3290;47.716;9.070;2023-06-04T05:36:09;7.93;;;5.50;;
6513;SDS011;3290;47.716;9.070;2023-06-04T05:38:34;9.80;;;5.50;;
6513;SDS011;3290;47.716;9.070;2023-06-04T05:41:00;8.40;;;5.57;;
6513;SDS011;3290;47.716;9.070;2023-06-04T05:43:26;7.80;;;5.97;;
6513;SDS011;3290;47.716;9.070;2023-06-04T05:45:51;11.47;;;7.17;;
6513;SDS011;3290;47.716;9.070;2023-06-04T05:48:17;10.07;;;5.77;;
6513;SDS011;3290;47.716;9.070;2023-06-04T05:50:42;11.90;;;6.20;;
6513;SDS011;3290;47.716;9.070;2023-06-04T05:53:08;9.43;;;5.80;;
6513;SDS011;3290;47.716;9.070;2023-06-04T05:55:33;10.57;;;6.50;;
6513;SDS011;3290;47.716;9.070;2023-06-04T05:57:59;10.70;;;6.87;;
6513;SDS011;3290;47.716;9.070;2023-06-04T06:00:24;8.80;;;6.37;;
6513;SDS011;3290;47.716;9.070;2023-06-04T06:02:50;13.70;;;7.40;;
6513;SDS011;3290;47.716;9.070;2023-06-04T06:05:17;9.10;;;5.83;;
6513;SDS011;3290;47.716;9.070;2023-06-04T06:07:44;9.13;;;6.00;;
6513;SDS011;3290;47.716;9.070;2023-06-04T06:10:10;12.33;;;6.60;;
6513;SDS011;3290;47.716;9.070;2023-06-04T06:12:36;12.50;;;6.20;;
6513;SDS011;3290;47.716;9.070;2023-06-04T06:15:02;12.13;;;6.57;;
6513;SDS011;3290;47.716;9.070;2023-06-04T06:17:27;9.33;;;5.90;;
6513;SDS011;3290;47.716;9.070;2023-06-04T06:19:53;10.90;;;6.13;;
6513;SDS011;3290;47.716;9.070;2023-06-04T06:22:19;7.07;;;5.50;;
6513;SDS011;3290;47.716;9.070;2023-06-04T06:24:45;11.40;;;6.17;;
6513;SDS011;3290;47.716;9.070;2023-06-04T06:27:11;11.33;;;6.20;;
6513;SDS011;3290;47.716;9.070;2023-06-04T06:29:37;11.43;;;6.47;;
6513;SDS011;3290;47.716;9.070;2023-06-04T06:32:04;16.63;;;6.00;;
6513;SDS011;3290;47.716;9.070;2023-06-04T06:34:29;9.80;;;5.90;;
6513;SDS011;3290;47.716;9.070;2023-06-04T06:36:55;10.57;;;6.37;;
6513;SDS011;3290;47.716;9.070;2023-06-04T06:39:20;7.43;;;4.90;;
6513;SDS011;3290;47.716;9.070;2023-06-04T06:41:45;8.20;;;6.07;;
6513;SDS011;3290;47.716;9.070;2023-06-04T06:44:11;8.93;;;5.30;;
6513;SDS011;3290;47.716;9.070;2023-06-04T06:46:36;13.67;;;6.60;;
6513;SDS011;3290;47.716;9.070;2023-06-04T06:49:01;6.70;;;5.00;;
6513;SDS011;3290;47.716;9.070;2023-06-04T06:51:27;8.90;;;6.43;;
6513;SDS011;3290;47.716;9.070;2023-06-04T06:53:52;9.50;;;6.30;;
6513;SDS011;3290;47.716;9.070;2023-06-04T06:56:18;7.97;;;5.50;;
6513;SDS011;3290;47.716;9.070;2023-06-04T06:58:46;9.67;;;6.00;;
6513;SDS011;3290;47.716;9.070;2023-06-04T07:01:12;8.60;;;5.50;;
6513;SDS011;3290;47.716;9.070;2023-06-04T07:03:37;13.87;;;5.53;;
6513;SDS011;3290;47.716;9.070;2023-06-04T07:06:04;9.57;;;6.40;;
6513;SDS011;3290;47.716;9.070;2023-06-04T07:08:30;7.37;;;5.50;;
6513;SDS011;3290;47.716;9.070;2023-06-04T07:10:56;9.97;;;6.10;;
6513;SDS011;3290;47.716;9.070;2023-06-04T07:13:22;8.13;;;5.30;;
6513;SDS011;3290;47.716;9.070;2023-06-04T07:15:47;10.20;;;5.77;;
6513;SDS011;3290;47.716;9.070;2023-06-04T07:18:13;10.67;;;5.50;;
6513;SDS011;3290;47.716;9.070;2023-06-04T07:20:38;8.70;;;5.60;;
6513;SDS011;3290;47.716;9.070;2023-06-04T07:23:03;8.60;;;5.30;;
6513;SDS011;3290;47.716;9.070;2023-06-04T07:25:29;9.03;;;5.90;;
6513;SDS011;3290;47.716;9.070;2023-06-04T07:27:54;7.23;;;6.07;;
6513;SDS011;3290;47.716;9.070;2023-06-04T07:30:23;10.00;;;6.50;;
6513;SDS011;3290;47.716;9.070;2023-06-04T07:32:49;9.73;;;5.83;;
6513;SDS011;3290;47.716;9.070;2023-06-04T07:35:15;9.30;;;5.37;;
6513;SDS011;3290;47.716;9.070;2023-06-04T07:37:40;8.57;;;5.70;;
6513;SDS011;3290;47.716;9.070;2023-06-04T07:40:06;13.23;;;6.00;;
6513;SDS011;3290;47.716;9.070;2023-06-04T07:42:32;7.30;;;6.03;;
6513;SDS011;3290;47.716;9.070;2023-06-04T07:44:58;10.97;;;5.70;;
6513;SDS011;3290;47.716;9.070;2023-06-04T07:47:23;10.17;;;5.57;;
6513;SDS011;3290;47.716;9.070;2023-06-04T07:49:49;10.20;;;5.80;;
6513;SDS011;3290;47.716;9.070;2023-06-04T07:52:15;12.73;;;6.30;;
6513;SDS011;3290;47.716;9.070;2023-06-04T07:54:40;9.53;;;5.20;;
6513;SDS011;3290;47.716;9.070;2023-06-04T07:57:06;8.10;;;5.20;;
6513;SDS011;3290;47.716;9.070;2023-06-04T07:59:32;8.20;;;5.83;;
6513;SDS011;3290;47.716;9.070;2023-06-04T08:01:57;12.60;;;5.80;;
6513;SDS011;3290;47.716;9.070;2023-06-04T08:04:23;9.57;;;5.43;;
6513;SDS011;3290;47.716;9.070;2023-06-04T08:06:48;10.77;;;5.93;;
6513;SDS011;3290;47.716;9.070;2023-06-04T08:09:15;9.80;;;5.57;;
6513;SDS011;3290;47.716;9.070;2023-06-04T08:11:41;9.57;;;5.70;;
6513;SDS011;3290;47.716;9.070;2023-06-04T08:14:09;6.90;;;5.20;;
6513;SDS011;3290;47.716;9.070;2023-06-04T08:16:36;7.40;;;5.50;;
6513;SDS011;3290;47.716;9.070;2023-06-04T08:19:01;7.17;;;5.63;;
6513;SDS011;3290;47.716;9.070;2023-06-04T08:21:26;8.77;;;5.70;;
6513;SDS011;3290;47.716;9.070;2023-06-04T08:23:53;9.60;;;6.10;;
6513;SDS011;3290;47.716;9.070;2023-06-04T08:26:19;8.43;;;6.10;;
6513;SDS011;3290;47.716;9.070;2023-06-04T08:28:48;8.67;;;5.80;;
6513;SDS011;3290;47.716;9.070;2023-06-04T08:31:14;8.63;;;5.60;;
6513;SDS011;3290;47.716;9.070;2023-06-04T08:33:40;12.20;;;6.10;;
6513;SDS011;3290;47.716;9.070;2023-06-04T08:36:05;9.20;;;5.60;;
6513;SDS011;3290;47.716;9.070;2023-06-04T08:38:31;8.47;;;5.50;;
6513;SDS011;3290;47.716;9.070;2023-06-04T08:40:57;7.70;;;5.13;;
6513;SDS011;3290;47.716;9.070;2023-06-04T08:43:35;9.90;;;5.57;;
6513;SDS011;3290;47.716;9.070;2023-06-04T08:46:03;9.70;;;5.70;;
6513;SDS011;3290;47.716;9.070;2023-06-04T08:48:33;6.73;;;4.93;;
6513;SDS011;3290;47.716;9.070;2023-06-04T08:51:00;7.97;;;5.73;;
6513;SDS011;3290;47.716;9.070;2023-06-04T08:53:27;8.40;;;6.00;;
6513;SDS011;3290;47.716;9.070;2023-06-04T08:55:52;8.83;;;5.90;;
6513;SDS011;3290;47.716;9.070;2023-06-04T08:58:18;7.00;;;5.27;;
6513;SDS011;3290;47.716;9.070;2023-06-04T09:00:45;8.40;;;5.97;;
6513;SDS011;3290;47.716;9.070;2023-06-04T09:03:10;8.40;;;5.03;;
6513;SDS011;3290;47.716;9.070;2023-06-04T09:05:37;5.93;;;5.30;;
6513;SDS011;3290;47.716;9.070;2023-06-04T09:08:04;13.70;;;5.70;;
6513;SDS011;3290;47.716;9.070;2023-06-04T09:10:33;9.67;;;5.70;;
6513;SDS011;3290;47.716;9.070;2023-06-04T09:13:01;9.73;;;5.00;;
6513;SDS011;3290;47.716;9.070;2023-06-04T09:15:28;10.27;;;5.70;;
6513;SDS011;3290;47.716;9.070;2023-06-04T09:17:53;8.33;;;6.00;;
6513;SDS011;3290;47.716;9.070;2023-06-04T09:20:22;7.00;;;5.23;;
6513;SDS011;3290;47.716;9.070;2023-06-04T09:22:48;7.53;;;5.53;;
6513;SDS011;3290;47.716;9.070;2023-06-04T09:25:21;7.73;;;5.43;;
6513;SDS011;3290;47.716;9.070;2023-06-04T09:27:50;8.10;;;5.93;;
6513;SDS011;3290;47.716;9.070;2023-06-04T09:30:15;11.10;;;5.73;;
6513;SDS011;3290;47.716;9.070;2023-06-04T09:32:41;11.20;;;5.80;;
6513;SDS011;3290;47.716;9.070;2023-06-04T09:35:10;8.57;;;5.97;;
6513;SDS011;3290;47.716;9.070;2023-06-04T09:37:36;8.23;;;5.80;;
6513;SDS011;3290;47.716;9.070;2023-06-04T09:40:02;11.50;;;5.97;;
6513;SDS011;3290;47.716;9.070;2023-06-04T09:42:30;7.97;;;5.60;;
6513;SDS011;3290;47.716;9.070;2023-06-04T09:44:55;7.60;;;5.47;;
6513;SDS011;3290;47.716;9.070;2023-06-04T09:47:21;7.97;;;5.30;;
6513;SDS011;3290;47.716;9.070;2023-06-04T09:49:46;10.70;;;6.17;;
6513;SDS011;3290;47.716;9.070;2023-06-04T09:52:15;14.13;;;5.60;;
6513;SDS011;3290;47.716;9.070;2023-06-04T09:54:40;14.73;;;6.03;;
6513;SDS011;3290;47.716;9.070;2023-06-04T09:59:43;6.13;;;4.80;;
6513;SDS011;3290;47.716;9.070;2023-06-04T10:02:11;8.87;;;5.50;;
6513;SDS011;3290;47.716;9.070;2023-06-04T10:04:37;11.70;;;5.63;;
6513;SDS011;3290;47.716;9.070;2023-06-04T10:07:11;8.83;;;5.70;;
6513;SDS011;3290;47.716;9.070;2023-06-04T10:09:40;8.63;;;6.17;;
6513;SDS011;3290;47.716;9.070;2023-06-04T10:12:11;7.60;;;5.33;;
6513;SDS011;3290;47.716;9.070;2023-06-04T10:14:44;6.77;;;5.10;;
6513;SDS011;3290;47.716;9.070;2023-06-04T10:17:13;9.73;;;5.33;;
6513;SDS011;3290;47.716;9.070;2023-06-04T10:19:42;8.80;;;5.63;;
6513;SDS011;3290;47.716;9.070;2023-06-04T10:22:09;5.50;;;4.67;;
6513;SDS011;3290;47.716;9.070;2023-06-04T10:24:36;8.50;;;5.37;;
6513;SDS011;3290;47.716;9.070;2023-06-04T10:27:01;12.80;;;5.10;;
6513;SDS011;3290;47.716;9.070;2023-06-04T10:29:35;12.13;;;5.37;;
6513;SDS011;3290;47.716;9.070;2023-06-04T10:32:01;10.83;;;5.20;;
6513;SDS011;3290;47.716;9.070;2023-06-04T10:34:26;6.27;;;4.90;;
6513;SDS011;3290;47.716;9.070;2023-06-04T10:36:52;7.63;;;4.87;;
6513;SDS011;3290;47.716;9.070;2023-06-04T10:39:27;11.77;;;5.70;;
6513;SDS011;3290;47.716;9.070;2023-06-04T10:42:00;6.33;;;4.80;;
6513;SDS011;3290;47.716;9.070;2023-06-04T10:44:32;6.83;;;5.30;;
6513;SDS011;3290;47.716;9.070;2023-06-04T10:47:21;6.10;;;4.77;;
6513;SDS011;3290;47.716;9.070;2023-06-04T10:49:49;7.93;;;4.67;;
6513;SDS011;3290;47.716;9.070;2023-06-04T10:52:18;10.20;;;4.37;;
6513;SDS011;3290;47.716;9.070;2023-06-04T10:54:44;12.37;;;6.10;;
6513;SDS011;3290;47.716;9.070;2023-06-04T10:57:14;8.30;;;5.47;;
6513;SDS011;3290;47.716;9.070;2023-06-04T10:59:41;7.57;;;4.40;;
6513;SDS011;3290;47.716;9.070;2023-06-04T11:02:18;5.53;;;4.67;;
6513;SDS011;3290;47.716;9.070;2023-06-04T11:04:43;7.80;;;5.23;;
6513;SDS011;3290;47.716;9.070;2023-06-04T11:07:09;8.20;;;5.43;;
6513;SDS011;3290;47.716;9.070;2023-06-04T11:09:38;6.07;;;5.00;;
6513;SDS011;3290;47.716;9.070;2023-06-04T11:12:13;9.43;;;4.50;;
6513;SDS011;3290;47.716;9.070;2023-06-04T11:14:39;5.30;;;4.80;;
6513;SDS011;3290;47.716;9.070;2023-06-04T11:17:10;5.47;;;4.50;;
6513;SDS011;3290;47.716;9.070;2023-06-04T11:19:37;10.83;;;5.40;;
6513;SDS011;3290;47.716;9.070;2023-06-04T11:22:07;8.07;;;5.30;;
6513;SDS011;3290;47.716;9.070;2023-06-04T11:24:35;8.93;;;4.50;;
6513;SDS011;3290;47.716;9.070;2023-06-04T11:27:01;11.50;;;5.17;;
6513;SDS011;3290;47.716;9.070;2023-06-04T11:29:27;5.93;;;4.87;;
6513;SDS011;3290;47.716;9.070;2023-06-04T11:31:53;7.87;;;4.50;;
6513;SDS011;3290;47.716;9.070;2023-06-04T11:34:25;8.23;;;5.23;;
6513;SDS011;3290;47.716;9.070;2023-06-04T11:36:54;5.33;;;4.40;;
6513;SDS011;3290;47.716;9.070;2023-06-04T11:39:21;7.70;;;4.87;;
6513;SDS011;3290;47.716;9.070;2023-06-04T11:41:47;6.67;;;4.63;;
6513;SDS011;3290;47.716;9.070;2023-06-04T11:44:17;5.87;;;4.27;;
6513;SDS011;3290;47.716;9.070;2023-06-04T11:46:44;6.83;;;4.70;;
6513;SDS011;3290;47.716;9.070;2023-06-04T11:49:14;5.80;;;5.00;;
6513;SDS011;3290;47.716;9.070;2023-06-04T11:51:47;6.47;;;4.60;;
6513;SDS011;3290;47.716;9.070;2023-06-04T11:54:17;7.03;;;4.90;;
6513;SDS011;3290;47.716;9.070;2023-06-04T11:56:43;8.50;;;3.83;;
6513;SDS011;3290;47.716;9.070;2023-06-04T11:59:13;8.77;;;4.47;;
6513;SDS011;3290;47.716;9.070;2023-06-04T12:01:40;4.80;;;4.03;;
6513;SDS011;3290;47.716;9.070;2023-06-04T12:04:13;10.73;;;4.90;;
6513;SDS011;3290;47.716;9.070;2023-06-04T12:06:52;6.57;;;4.47;;
6513;SDS011;3290;47.716;9.070;2023-06-04T12:09:25;8.97;;;4.50;;
6513;SDS011;3290;47.716;9.070;2023-06-04T12:12:00;6.80;;;4.37;;
6513;SDS011;3290;47.716;9.070;2023-06-04T12:14:28;5.37;;;4.13;;
6513;SDS011;3290;47.716;9.070;2023-06-04T12:17:14;7.70;;;4.83;;
6513;SDS011;3290;47.716;9.070;2023-06-04T12:19:49;5.20;;;3.90;;
6513;SDS011;3290;47.716;9.070;2023-06-04T12:22:16;5.13;;;3.97;;
6513;SDS011;3290;47.716;9.070;2023-06-04T12:24:51;4.43;;;4.03;;
6513;SDS011;3290;47.716;9.070;2023-06-04T12:27:18;6.17;;;4.17;;
6513;SDS011;3290;47.716;9.070;2023-06-04T12:30:07;6.90;;;4.40;;
6513;SDS011;3290;47.716;9.070;2023-06-04T12:32:34;6.57;;;4.90;;
6513;SDS011;3290;47.716;9.070;2023-06-04T12:35:00;8.20;;;4.73;;
6513;SDS011;3290;47.716;9.070;2023-06-04T12:37:26;6.70;;;4.40;;
6513;SDS011;3290;47.716;9.070;2023-06-04T12:39:52;9.53;;;4.23;;
6513;SDS011;3290;47.716;9.070;2023-06-04T12:42:18;7.63;;;4.70;;
6513;SDS011;3290;47.716;9.070;2023-06-04T12:44:45;6.27;;;4.23;;
6513;SDS011;3290;47.716;9.070;2023-06-04T12:47:11;9.10;;;4.60;;
6513;SDS011;3290;47.716;9.070;2023-06-04T12:49:36;5.13;;;4.57;;
6513;SDS011;3290;47.716;9.070;2023-06-04T12:52:02;5.10;;;4.60;;
6513;SDS011;3290;47.716;9.070;2023-06-04T12:54:28;5.50;;;4.50;;
6513;SDS011;3290;47.716;9.070;2023-06-04T12:56:54;8.93;;;4.00;;
6513;SDS011;3290;47.716;9.070;2023-06-04T12:59:21;5.80;;;4.30;;
6513;SDS011;3290;47.716;9.070;2023-06-04T13:01:47;6.07;;;4.40;;
6513;SDS011;3290;47.716;9.070;2023-06-04T13:04:12;9.50;;;5.40;;
6513;SDS011;3290;47.716;9.070;2023-06-04T13:06:37;5.77;;;4.37;;
6513;SDS011;3290;47.716;9.070;2023-06-04T13:09:03;7.63;;;4.30;;
6513;SDS011;3290;47.716;9.070;2023-06-04T13:11:34;7.37;;;4.47;;
6513;SDS011;3290;47.716;9.070;2023-06-04T13:14:03;9.13;;;5.40;;
6513;SDS011;3290;47.716;9.070;2023-06-04T13:16:28;6.80;;;5.43;;
6513;SDS011;3290;47.716;9.070;2023-06-04T13:18:53;6.17;;;3.87;;
6513;SDS011;3290;47.716;9.070;2023-06-04T13:21:19;8.53;;;4.43;;
6513;SDS011;3290;47.716;9.070;2023-06-04T13:23:44;7.53;;;4.70;;
6513;SDS011;3290;47.716;9.070;2023-06-04T13:26:09;8.50;;;4.70;;
6513;SDS011;3290;47.716;9.070;2023-06-04T13:28:35;6.53;;;4.67;;
6513;SDS011;3290;47.716;9.070;2023-06-04T13:31:00;7.53;;;5.30;;
6513;SDS011;3290;47.716;9.070;2023-06-04T13:33:26;5.80;;;4.10;;
6513;SDS011;3290;47.716;9.070;2023-06-04T13:35:52;6.50;;;4.53;;
6513;SDS011;3290;47.716;9.070;2023-06-04T13:38:18;8.00;;;5.00;;
6513;SDS011;3290;47.716;9.070;2023-06-04T13:40:43;9.40;;;4.70;;
6513;SDS011;3290;47.716;9.070;2023-06-04T13:43:09;4.87;;;4.37;;
6513;SDS011;3290;47.716;9.070;2023-06-04T13:45:35;6.47;;;4.13;;
6513;SDS011;3290;47.716;9.070;2023-06-04T13:48:00;5.93;;;3.93;;
6513;SDS011;3290;47.716;9.070;2023-06-04T13:50:31;8.20;;;4.10;;
6513;SDS011;3290;47.716;9.070;2023-06-04T13:52:57;4.97;;;4.37;;
6513;SDS011;3290;47.716;9.070;2023-06-04T13:55:22;5.97;;;4.67;;
6513;SDS011;3290;47.716;9.070;2023-06-04T13:57:47;5.43;;;4.53;;
6513;SDS011;3290;47.716;9.070;2023-06-04T14:00:13;4.63;;;4.13;;
6513;SDS011;3290;47.716;9.070;2023-06-04T14:02:39;7.17;;;3.93;;
6513;SDS011;3290;47.716;9.070;2023-06-04T14:05:04;7.17;;;4.50;;
6513;SDS011;3290;47.716;9.070;2023-06-04T14:07:30;6.20;;;4.77;;
6513;SDS011;3290;47.716;9.070;2023-06-04T14:09:55;7.07;;;4.53;;
6513;SDS011;3290;47.716;9.070;2023-06-04T14:12:21;4.60;;;4.10;;
6513;SDS011;3290;47.716;9.070;2023-06-04T14:14:47;6.00;;;4.37;;
6513;SDS011;3290;47.716;9.070;2023-06-04T14:17:13;6.20;;;4.40;;
6513;SDS011;3290;47.716;9.070;2023-06-04T14:19:38;7.27;;;4.43;;
6513;SDS011;3290;47.716;9.070;2023-06-04T14:22:05;10.37;;;5.00;;
6513;SDS011;3290;47.716;9.070;2023-06-04T14:24:30;6.90;;;4.30;;
6513;SDS011;3290;47.716;9.070;2023-06-04T14:26:56;8.10;;;4.97;;
6513;SDS011;3290;47.716;9.070;2023-06-04T14:29:21;7.40;;;5.10;;
6513;SDS011;3290;47.716;9.070;2023-06-04T14:31:46;5.50;;;4.70;;
6513;SDS011;3290;47.716;9.070;2023-06-04T14:34:12;8.60;;;4.30;;
6513;SDS011;3290;47.716;9.070;2023-06-04T14:36:37;7.37;;;5.07;;
6513;SDS011;3290;47.716;9.070;2023-06-04T14:39:06;9.87;;;4.90;;
6513;SDS011;3290;47.716;9.070;2023-06-04T14:41:31;6.50;;;3.93;;
6513;SDS011;3290;47.716;9.070;2023-06-04T14:43:57;5.90;;;4.50;;
6513;SDS011;3290;47.716;9.070;2023-06-04T14:46:22;7.03;;;5.00;;
6513;SDS011;3290;47.716;9.070;2023-06-04T14:48:48;7.07;;;5.33;;
6513;SDS011;3290;47.716;9.070;2023-06-04T14:51:14;7.70;;;4.73;;
6513;SDS011;3290;47.716;9.070;2023-06-04T14:53:40;7.60;;;4.97;;
6513;SDS011;3290;47.716;9.070;2023-06-04T14:56:06;7.80;;;4.50;;
6513;SDS011;3290;47.716;9.070;2023-06-04T14:58:31;7.40;;;5.10;;
6513;SDS011;3290;47.716;9.070;2023-06-04T15:00:58;6.60;;;4.97;;
6513;SDS011;3290;47.716;9.070;2023-06-04T15:03:24;5.20;;;4.20;;
6513;SDS011;3290;47.716;9.070;2023-06-04T15:05:51;7.10;;;4.67;;
6513;SDS011;3290;47.716;9.070;2023-06-04T15:08:16;5.83;;;5.10;;
6513;SDS011;3290;47.716;9.070;2023-06-04T15:10:42;8.50;;;5.07;;
6513;SDS011;3290;47.716;9.070;2023-06-04T15:13:07;5.93;;;4.90;;
6513;SDS011;3290;47.716;9.070;2023-06-04T15:15:33;8.67;;;4.73;;